sensor_id;sensor_type;location;lat;lon;timestamp;P1;durP1;ratioP1;P2;durP2;ratioP2
37841;SDS011;23682;53.508;10.476;2022-08-19T00:01:29;12.68;;;4.30;;
37841;SDS011;23682;53.508;10.476;2022-08-19T00:04:00;10.43;;;4.40;;
37841;SDS011;23682;53.508;10.476;2022-08-19T00:06:29;7.90;;;4.63;;
37841;SDS011;23682;53.508;10.476;2022-08-19T00:08:57;7.40;;;4.10;;
37841;SDS011;23682;53.508;10.476;2022-08-19T00:11:26;7.72;;;3.97;;
37841;SDS011;23682;53.508;10.476;2022-08-19T00:13:54;6.05;;;3.83;;
37841;SDS011;23682;53.508;10.476;2022-08-19T00:16:23;6.38;;;3.75;;
37841;SDS011;23682;53.508;10.476;2022-08-19T00:18:52;7.07;;;3.97;;
37841;SDS011;23682;53.508;10.476;2022-08-19T00:21:22;7.07;;;4.47;;
37841;SDS011;23682;53.508;10.476;2022-08-19T00:23:51;9.45;;;4.65;;
37841;SDS011;23682;53.508;10.476;2022-08-19T00:26:19;8.15;;;4.75;;
37841;SDS011;23682;53.508;10.476;2022-08-19T00:28:46;8.15;;;4.22;;
37841;SDS011;23682;53.508;10.476;2022-08-19T00:31:13;11.82;;;5.10;;
37841;SDS011;23682;53.508;10.476;2022-08-19T00:33:40;8.10;;;4.78;;
37841;SDS011;23682;53.508;10.476;2022-08-19T00:36:07;9.13;;;4.82;;
37841;SDS011;23682;53.508;10.476;2022-08-19T00:38:36;12.98;;;5.75;;
37841;SDS011;23682;53.508;10.476;2022-08-19T00:41:04;10.10;;;4.90;;
37841;SDS011;23682;53.508;10.476;2022-08-19T00:43:31;9.35;;;5.28;;
37841;SDS011;23682;53.508;10.476;2022-08-19T00:45:59;9.30;;;5.22;;
37841;SDS011;23682;53.508;10.476;2022-08-19T00:48:29;11.80;;;5.90;;
37841;SDS011;23682;53.508;10.476;2022-08-19T00:50:55;12.75;;;5.60;;
37841;SDS011;23682;53.508;10.476;2022-08-19T00:53:24;10.65;;;5.50;;
37841;SDS011;23682;53.508;10.476;2022-08-19T00:55:54;10.68;;;6.03;;
37841;SDS011;23682;53.508;10.476;2022-08-19T00:58:24;10.57;;;5.20;;
37841;SDS011;23682;53.508;10.476;2022-08-19T01:00:56;10.70;;;5.80;;
37841;SDS011;23682;53.508;10.476;2022-08-19T01:03:23;10.90;;;5.72;;
37841;SDS011;23682;53.508;10.476;2022-08-19T01:05:50;11.85;;;5.90;;
37841;SDS011;23682;53.508;10.476;2022-08-19T01:08:20;11.15;;;6.65;;
37841;SDS011;23682;53.508;10.476;2022-08-19T01:10:48;9.55;;;5.82;;
37841;SDS011;23682;53.508;10.476;2022-08-19T01:13:19;9.15;;;5.78;;
37841;SDS011;23682;53.508;10.476;2022-08-19T01:15:48;14.02;;;6.35;;
37841;SDS011;23682;53.508;10.476;2022-08-19T01:18:18;9.57;;;5.70;;
37841;SDS011;23682;53.508;10.476;2022-08-19T01:20:46;15.02;;;7.47;;
37841;SDS011;23682;53.508;10.476;2022-08-19T01:23:14;18.67;;;6.35;;
37841;SDS011;23682;53.508;10.476;2022-08-19T01:25:49;13.10;;;6.38;;
37841;SDS011;23682;53.508;10.476;2022-08-19T01:28:23;12.65;;;5.93;;
37841;SDS011;23682;53.508;10.476;2022-08-19T01:31:05;13.55;;;6.50;;
37841;SDS011;23682;53.508;10.476;2022-08-19T01:33:34;12.38;;;6.57;;
37841;SDS011;23682;53.508;10.476;2022-08-19T01:36:05;14.25;;;6.70;;
37841;SDS011;23682;53.508;10.476;2022-08-19T01:38:37;12.77;;;6.80;;
37841;SDS011;23682;53.508;10.476;2022-08-19T01:41:10;14.35;;;7.15;;
37841;SDS011;23682;53.508;10.476;2022-08-19T01:43:38;14.13;;;7.40;;
37841;SDS011;23682;53.508;10.476;2022-08-19T01:46:25;16.10;;;7.00;;
37841;SDS011;23682;53.508;10.476;2022-08-19T01:48:52;15.60;;;7.28;;
37841;SDS011;23682;53.508;10.476;2022-08-19T01:51:19;13.90;;;6.50;;
37841;SDS011;23682;53.508;10.476;2022-08-19T01:53:49;15.32;;;7.00;;
37841;SDS011;23682;53.508;10.476;2022-08-19T01:56:18;17.45;;;7.30;;
37841;SDS011;23682;53.508;10.476;2022-08-19T01:58:49;17.05;;;7.97;;
37841;SDS011;23682;53.508;10.476;2022-08-19T02:01:20;14.77;;;7.63;;
37841;SDS011;23682;53.508;10.476;2022-08-19T02:03:47;15.88;;;7.13;;
37841;SDS011;23682;53.508;10.476;2022-08-19T02:06:14;17.45;;;8.10;;
37841;SDS011;23682;53.508;10.476;2022-08-19T02:08:43;19.48;;;7.90;;
37841;SDS011;23682;53.508;10.476;2022-08-19T02:11:18;16.80;;;8.15;;
37841;SDS011;23682;53.508;10.476;2022-08-19T02:16:18;16.60;;;7.82;;
37841;SDS011;23682;53.508;10.476;2022-08-19T02:18:46;15.05;;;7.53;;
37841;SDS011;23682;53.508;10.476;2022-08-19T02:21:15;15.73;;;7.68;;
37841;SDS011;23682;53.508;10.476;2022-08-19T02:23:43;16.52;;;8.30;;
37841;SDS011;23682;53.508;10.476;2022-08-19T02:26:10;15.50;;;8.15;;
37841;SDS011;23682;53.508;10.476;2022-08-19T02:28:39;13.30;;;7.03;;
37841;SDS011;23682;53.508;10.476;2022-08-19T02:31:09;18.33;;;7.88;;
37841;SDS011;23682;53.508;10.476;2022-08-19T02:33:37;16.35;;;7.07;;
37841;SDS011;23682;53.508;10.476;2022-08-19T02:36:04;12.13;;;6.15;;
37841;SDS011;23682;53.508;10.476;2022-08-19T02:38:32;15.93;;;7.43;;
37841;SDS011;23682;53.508;10.476;2022-08-19T02:41:00;18.17;;;8.30;;
37841;SDS011;23682;53.508;10.476;2022-08-19T02:43:31;17.85;;;7.60;;
37841;SDS011;23682;53.508;10.476;2022-08-19T02:48:54;14.35;;;7.45;;
37841;SDS011;23682;53.508;10.476;2022-08-19T02:54:48;17.85;;;7.43;;
37841;SDS011;23682;53.508;10.476;2022-08-19T02:57:15;18.95;;;8.07;;
37841;SDS011;23682;53.508;10.476;2022-08-19T02:59:42;15.98;;;7.45;;
37841;SDS011;23682;53.508;10.476;2022-08-19T03:02:09;16.17;;;7.80;;
37841;SDS011;23682;53.508;10.476;2022-08-19T03:04:36;16.00;;;7.97;;
37841;SDS011;23682;53.508;10.476;2022-08-19T03:07:02;18.77;;;7.07;;
37841;SDS011;23682;53.508;10.476;2022-08-19T03:09:36;17.70;;;7.75;;
37841;SDS011;23682;53.508;10.476;2022-08-19T03:12:04;15.27;;;7.35;;
37841;SDS011;23682;53.508;10.476;2022-08-19T03:14:31;14.60;;;7.63;;
37841;SDS011;23682;53.508;10.476;2022-08-19T03:16:59;16.83;;;8.38;;
37841;SDS011;23682;53.508;10.476;2022-08-19T03:19:26;20.02;;;7.93;;
37841;SDS011;23682;53.508;10.476;2022-08-19T03:21:53;16.98;;;8.38;;
37841;SDS011;23682;53.508;10.476;2022-08-19T03:24:21;15.52;;;7.95;;
37841;SDS011;23682;53.508;10.476;2022-08-19T03:26:49;19.38;;;8.10;;
37841;SDS011;23682;53.508;10.476;2022-08-19T03:29:23;16.60;;;8.40;;
37841;SDS011;23682;53.508;10.476;2022-08-19T03:32:00;15.13;;;8.07;;
37841;SDS011;23682;53.508;10.476;2022-08-19T03:34:30;15.93;;;7.85;;
37841;SDS011;23682;53.508;10.476;2022-08-19T03:37:01;16.05;;;8.50;;
37841;SDS011;23682;53.508;10.476;2022-08-19T03:39:30;19.73;;;8.35;;
37841;SDS011;23682;53.508;10.476;2022-08-19T03:41:57;20.58;;;8.10;;
37841;SDS011;23682;53.508;10.476;2022-08-19T03:44:46;14.02;;;7.28;;
37841;SDS011;23682;53.508;10.476;2022-08-19T03:47:12;16.23;;;8.18;;
37841;SDS011;23682;53.508;10.476;2022-08-19T03:49:42;15.98;;;8.23;;
37841;SDS011;23682;53.508;10.476;2022-08-19T03:52:10;17.75;;;7.85;;
37841;SDS011;23682;53.508;10.476;2022-08-19T03:54:37;18.02;;;7.57;;
37841;SDS011;23682;53.508;10.476;2022-08-19T03:57:04;22.60;;;8.02;;
37841;SDS011;23682;53.508;10.476;2022-08-19T03:59:33;19.05;;;8.57;;
37841;SDS011;23682;53.508;10.476;2022-08-19T04:02:04;16.63;;;8.20;;
37841;SDS011;23682;53.508;10.476;2022-08-19T04:04:36;17.90;;;7.80;;
37841;SDS011;23682;53.508;10.476;2022-08-19T04:07:03;14.98;;;8.15;;
37841;SDS011;23682;53.508;10.476;2022-08-19T04:09:31;17.38;;;8.73;;
37841;SDS011;23682;53.508;10.476;2022-08-19T04:12:00;14.55;;;7.78;;
37841;SDS011;23682;53.508;10.476;2022-08-19T04:14:28;18.88;;;7.95;;
37841;SDS011;23682;53.508;10.476;2022-08-19T04:17:00;21.13;;;8.90;;
37841;SDS011;23682;53.508;10.476;2022-08-19T04:19:31;22.05;;;8.10;;
37841;SDS011;23682;53.508;10.476;2022-08-19T04:21:58;17.30;;;7.45;;
37841;SDS011;23682;53.508;10.476;2022-08-19T04:24:25;18.23;;;8.10;;
37841;SDS011;23682;53.508;10.476;2022-08-19T04:26:52;20.45;;;8.30;;
37841;SDS011;23682;53.508;10.476;2022-08-19T04:29:21;20.95;;;9.00;;
37841;SDS011;23682;53.508;10.476;2022-08-19T04:31:51;17.33;;;7.90;;
37841;SDS011;23682;53.508;10.476;2022-08-19T04:34:20;18.63;;;8.15;;
37841;SDS011;23682;53.508;10.476;2022-08-19T04:36:49;20.17;;;9.77;;
37841;SDS011;23682;53.508;10.476;2022-08-19T04:39:19;20.23;;;8.40;;
37841;SDS011;23682;53.508;10.476;2022-08-19T04:41:47;24.60;;;8.52;;
37841;SDS011;23682;53.508;10.476;2022-08-19T04:44:34;19.83;;;7.55;;
37841;SDS011;23682;53.508;10.476;2022-08-19T04:47:11;22.65;;;8.45;;
37841;SDS011;23682;53.508;10.476;2022-08-19T04:49:37;17.50;;;8.35;;
37841;SDS011;23682;53.508;10.476;2022-08-19T04:52:04;18.60;;;8.23;;
37841;SDS011;23682;53.508;10.476;2022-08-19T04:54:31;25.25;;;8.43;;
37841;SDS011;23682;53.508;10.476;2022-08-19T04:57:05;20.52;;;8.25;;
37841;SDS011;23682;53.508;10.476;2022-08-19T04:59:37;20.33;;;8.18;;
37841;SDS011;23682;53.508;10.476;2022-08-19T05:02:04;19.73;;;8.45;;
37841;SDS011;23682;53.508;10.476;2022-08-19T05:04:34;19.38;;;7.88;;
37841;SDS011;23682;53.508;10.476;2022-08-19T05:07:05;19.20;;;7.72;;
37841;SDS011;23682;53.508;10.476;2022-08-19T05:09:33;25.60;;;8.13;;
37841;SDS011;23682;53.508;10.476;2022-08-19T05:12:20;18.77;;;7.93;;
37841;SDS011;23682;53.508;10.476;2022-08-19T05:14:54;27.85;;;8.38;;
37841;SDS011;23682;53.508;10.476;2022-08-19T05:17:23;21.25;;;7.78;;
37841;SDS011;23682;53.508;10.476;2022-08-19T05:19:54;21.08;;;7.93;;
37841;SDS011;23682;53.508;10.476;2022-08-19T05:22:41;18.00;;;7.60;;
37841;SDS011;23682;53.508;10.476;2022-08-19T05:25:10;19.00;;;7.97;;
37841;SDS011;23682;53.508;10.476;2022-08-19T05:27:40;16.77;;;7.63;;
37841;SDS011;23682;53.508;10.476;2022-08-19T05:30:07;17.35;;;7.70;;
37841;SDS011;23682;53.508;10.476;2022-08-19T05:32:36;16.13;;;7.80;;
37841;SDS011;23682;53.508;10.476;2022-08-19T05:35:04;15.18;;;7.63;;
37841;SDS011;23682;53.508;10.476;2022-08-19T05:37:32;17.48;;;7.45;;
37841;SDS011;23682;53.508;10.476;2022-08-19T05:39:58;20.23;;;7.72;;
37841;SDS011;23682;53.508;10.476;2022-08-19T05:42:25;18.10;;;7.45;;
37841;SDS011;23682;53.508;10.476;2022-08-19T05:44:52;14.02;;;6.22;;
37841;SDS011;23682;53.508;10.476;2022-08-19T05:47:19;20.63;;;7.35;;
37841;SDS011;23682;53.508;10.476;2022-08-19T05:49:47;17.67;;;6.63;;
37841;SDS011;23682;53.508;10.476;2022-08-19T05:52:16;22.58;;;7.82;;
37841;SDS011;23682;53.508;10.476;2022-08-19T05:54:44;19.13;;;8.00;;
37841;SDS011;23682;53.508;10.476;2022-08-19T05:57:17;20.15;;;6.72;;
37841;SDS011;23682;53.508;10.476;2022-08-19T05:59:44;18.38;;;7.10;;
37841;SDS011;23682;53.508;10.476;2022-08-19T06:02:24;16.67;;;7.32;;
37841;SDS011;23682;53.508;10.476;2022-08-19T06:04:54;18.58;;;7.30;;
37841;SDS011;23682;53.508;10.476;2022-08-19T06:07:21;18.08;;;7.32;;
37841;SDS011;23682;53.508;10.476;2022-08-19T06:09:48;19.15;;;7.35;;
37841;SDS011;23682;53.508;10.476;2022-08-19T06:12:30;13.10;;;5.93;;
37841;SDS011;23682;53.508;10.476;2022-08-19T06:14:59;11.60;;;7.00;;
37841;SDS011;23682;53.508;10.476;2022-08-19T06:17:31;14.23;;;6.43;;
37841;SDS011;23682;53.508;10.476;2022-08-19T06:20:01;18.58;;;6.55;;
37841;SDS011;23682;53.508;10.476;2022-08-19T06:22:37;12.10;;;6.20;;
37841;SDS011;23682;53.508;10.476;2022-08-19T06:25:05;10.30;;;5.47;;
37841;SDS011;23682;53.508;10.476;2022-08-19T06:27:32;11.40;;;5.60;;
37841;SDS011;23682;53.508;10.476;2022-08-19T06:29:59;13.80;;;6.25;;
37841;SDS011;23682;53.508;10.476;2022-08-19T06:32:27;12.05;;;5.60;;
37841;SDS011;23682;53.508;10.476;2022-08-19T06:34:54;14.05;;;5.75;;
37841;SDS011;23682;53.508;10.476;2022-08-19T06:37:21;12.73;;;5.80;;
37841;SDS011;23682;53.508;10.476;2022-08-19T06:39:48;17.73;;;6.38;;
37841;SDS011;23682;53.508;10.476;2022-08-19T06:42:16;15.95;;;6.28;;
37841;SDS011;23682;53.508;10.476;2022-08-19T06:44:47;12.82;;;5.72;;
37841;SDS011;23682;53.508;10.476;2022-08-19T06:47:19;11.85;;;5.55;;
37841;SDS011;23682;53.508;10.476;2022-08-19T06:49:52;13.43;;;5.63;;
37841;SDS011;23682;53.508;10.476;2022-08-19T06:52:32;9.48;;;4.90;;
37841;SDS011;23682;53.508;10.476;2022-08-19T06:55:03;11.35;;;5.90;;
37841;SDS011;23682;53.508;10.476;2022-08-19T06:57:31;12.88;;;5.80;;
37841;SDS011;23682;53.508;10.476;2022-08-19T06:59:59;17.45;;;6.03;;
37841;SDS011;23682;53.508;10.476;2022-08-19T07:02:26;13.80;;;6.35;;
37841;SDS011;23682;53.508;10.476;2022-08-19T07:04:53;10.20;;;5.65;;
37841;SDS011;23682;53.508;10.476;2022-08-19T07:07:24;12.50;;;5.90;;
37841;SDS011;23682;53.508;10.476;2022-08-19T07:09:51;16.23;;;6.57;;
37841;SDS011;23682;53.508;10.476;2022-08-19T07:12:30;15.80;;;6.63;;
37841;SDS011;23682;53.508;10.476;2022-08-19T07:15:06;15.93;;;6.70;;
37841;SDS011;23682;53.508;10.476;2022-08-19T07:17:37;13.10;;;6.28;;
37841;SDS011;23682;53.508;10.476;2022-08-19T07:20:07;11.93;;;5.97;;
37841;SDS011;23682;53.508;10.476;2022-08-19T07:22:38;15.93;;;6.88;;
37841;SDS011;23682;53.508;10.476;2022-08-19T07:25:07;19.10;;;7.07;;
37841;SDS011;23682;53.508;10.476;2022-08-19T07:27:35;19.42;;;6.80;;
37841;SDS011;23682;53.508;10.476;2022-08-19T07:30:05;13.73;;;6.55;;
37841;SDS011;23682;53.508;10.476;2022-08-19T07:32:37;14.15;;;7.05;;
37841;SDS011;23682;53.508;10.476;2022-08-19T07:35:04;15.82;;;6.22;;
37841;SDS011;23682;53.508;10.476;2022-08-19T07:37:32;17.98;;;6.80;;
37841;SDS011;23682;53.508;10.476;2022-08-19T07:40:01;10.60;;;6.18;;
37841;SDS011;23682;53.508;10.476;2022-08-19T07:42:29;22.13;;;6.57;;
37841;SDS011;23682;53.508;10.476;2022-08-19T07:44:56;17.27;;;6.63;;
37841;SDS011;23682;53.508;10.476;2022-08-19T07:47:24;15.95;;;6.65;;
37841;SDS011;23682;53.508;10.476;2022-08-19T07:50:11;15.13;;;6.95;;
37841;SDS011;23682;53.508;10.476;2022-08-19T07:52:38;13.40;;;5.80;;
37841;SDS011;23682;53.508;10.476;2022-08-19T07:55:07;14.88;;;6.47;;
37841;SDS011;23682;53.508;10.476;2022-08-19T07:57:56;13.40;;;6.78;;
37841;SDS011;23682;53.508;10.476;2022-08-19T08:00:23;18.50;;;7.30;;
37841;SDS011;23682;53.508;10.476;2022-08-19T08:02:50;17.15;;;7.43;;
37841;SDS011;23682;53.508;10.476;2022-08-19T08:05:21;14.55;;;6.45;;
37841;SDS011;23682;53.508;10.476;2022-08-19T08:08:09;15.27;;;6.80;;
37841;SDS011;23682;53.508;10.476;2022-08-19T08:10:57;17.38;;;7.13;;
37841;SDS011;23682;53.508;10.476;2022-08-19T08:13:24;21.20;;;7.47;;
37841;SDS011;23682;53.508;10.476;2022-08-19T08:15:52;12.88;;;6.57;;
37841;SDS011;23682;53.508;10.476;2022-08-19T08:18:21;19.40;;;7.18;;
37841;SDS011;23682;53.508;10.476;2022-08-19T08:20:55;17.95;;;6.38;;
37841;SDS011;23682;53.508;10.476;2022-08-19T08:23:23;18.23;;;7.30;;
37841;SDS011;23682;53.508;10.476;2022-08-19T08:25:53;15.43;;;6.88;;
37841;SDS011;23682;53.508;10.476;2022-08-19T08:28:23;14.77;;;6.88;;
37841;SDS011;23682;53.508;10.476;2022-08-19T08:30:51;16.65;;;7.50;;
37841;SDS011;23682;53.508;10.476;2022-08-19T08:33:19;14.45;;;6.80;;
37841;SDS011;23682;53.508;10.476;2022-08-19T08:36:06;16.63;;;7.70;;
37841;SDS011;23682;53.508;10.476;2022-08-19T08:38:37;20.38;;;7.65;;
37841;SDS011;23682;53.508;10.476;2022-08-19T08:41:30;13.65;;;6.30;;
37841;SDS011;23682;53.508;10.476;2022-08-19T08:44:10;15.63;;;7.00;;
37841;SDS011;23682;53.508;10.476;2022-08-19T08:46:53;14.65;;;6.88;;
37841;SDS011;23682;53.508;10.476;2022-08-19T08:49:32;17.92;;;7.47;;
37841;SDS011;23682;53.508;10.476;2022-08-19T08:52:19;19.45;;;6.88;;
37841;SDS011;23682;53.508;10.476;2022-08-19T08:54:57;17.65;;;7.35;;
37841;SDS011;23682;53.508;10.476;2022-08-19T08:57:29;15.68;;;7.25;;
37841;SDS011;23682;53.508;10.476;2022-08-19T09:00:10;19.10;;;7.80;;
37841;SDS011;23682;53.508;10.476;2022-08-19T09:02:42;17.52;;;7.68;;
37841;SDS011;23682;53.508;10.476;2022-08-19T09:05:15;18.88;;;8.32;;
37841;SDS011;23682;53.508;10.476;2022-08-19T09:15:42;21.50;;;7.78;;
37841;SDS011;23682;53.508;10.476;2022-08-19T09:18:41;20.40;;;7.90;;
37841;SDS011;23682;53.508;10.476;2022-08-19T09:21:15;22.92;;;8.38;;
37841;SDS011;23682;53.508;10.476;2022-08-19T09:23:43;18.27;;;7.20;;
37841;SDS011;23682;53.508;10.476;2022-08-19T09:26:12;28.38;;;8.77;;
37841;SDS011;23682;53.508;10.476;2022-08-19T09:28:42;27.02;;;9.95;;
37841;SDS011;23682;53.508;10.476;2022-08-19T09:31:16;20.83;;;8.15;;
37841;SDS011;23682;53.508;10.476;2022-08-19T09:33:45;18.80;;;7.47;;
37841;SDS011;23682;53.508;10.476;2022-08-19T09:36:14;26.15;;;8.40;;
37841;SDS011;23682;53.508;10.476;2022-08-19T09:39:00;21.58;;;7.50;;
37841;SDS011;23682;53.508;10.476;2022-08-19T09:41:27;16.58;;;7.03;;
37841;SDS011;23682;53.508;10.476;2022-08-19T09:43:55;19.55;;;8.05;;
37841;SDS011;23682;53.508;10.476;2022-08-19T09:46:25;19.42;;;7.88;;
37841;SDS011;23682;53.508;10.476;2022-08-19T09:48:53;21.00;;;7.72;;
37841;SDS011;23682;53.508;10.476;2022-08-19T09:51:31;19.55;;;8.07;;
37841;SDS011;23682;53.508;10.476;2022-08-19T09:54:01;17.90;;;7.00;;
37841;SDS011;23682;53.508;10.476;2022-08-19T09:56:30;20.95;;;8.82;;
37841;SDS011;23682;53.508;10.476;2022-08-19T09:58:59;27.17;;;8.38;;
37841;SDS011;23682;53.508;10.476;2022-08-19T10:01:28;31.48;;;8.77;;
37841;SDS011;23682;53.508;10.476;2022-08-19T10:03:56;17.75;;;7.32;;
37841;SDS011;23682;53.508;10.476;2022-08-19T10:06:26;20.10;;;8.00;;
37841;SDS011;23682;53.508;10.476;2022-08-19T10:09:12;19.60;;;8.60;;
37841;SDS011;23682;53.508;10.476;2022-08-19T10:11:41;21.88;;;6.85;;
37841;SDS011;23682;53.508;10.476;2022-08-19T10:14:19;21.80;;;7.97;;
37841;SDS011;23682;53.508;10.476;2022-08-19T10:16:48;19.70;;;7.88;;
37841;SDS011;23682;53.508;10.476;2022-08-19T10:19:18;20.92;;;8.13;;
37841;SDS011;23682;53.508;10.476;2022-08-19T10:21:51;19.23;;;8.27;;
37841;SDS011;23682;53.508;10.476;2022-08-19T10:24:26;16.63;;;7.93;;
37841;SDS011;23682;53.508;10.476;2022-08-19T10:26:54;25.38;;;8.70;;
37841;SDS011;23682;53.508;10.476;2022-08-19T10:29:25;25.55;;;8.38;;
37841;SDS011;23682;53.508;10.476;2022-08-19T10:31:58;26.30;;;8.30;;
37841;SDS011;23682;53.508;10.476;2022-08-19T10:34:35;19.73;;;8.18;;
37841;SDS011;23682;53.508;10.476;2022-08-19T10:37:13;21.95;;;8.35;;
37841;SDS011;23682;53.508;10.476;2022-08-19T10:39:45;22.17;;;8.65;;
37841;SDS011;23682;53.508;10.476;2022-08-19T10:42:14;23.70;;;8.23;;
37841;SDS011;23682;53.508;10.476;2022-08-19T10:44:43;23.83;;;7.95;;
37841;SDS011;23682;53.508;10.476;2022-08-19T10:47:10;25.63;;;8.13;;
37841;SDS011;23682;53.508;10.476;2022-08-19T10:49:51;21.08;;;8.65;;
37841;SDS011;23682;53.508;10.476;2022-08-19T10:52:38;20.83;;;7.88;;
37841;SDS011;23682;53.508;10.476;2022-08-19T10:55:15;23.63;;;7.75;;
37841;SDS011;23682;53.508;10.476;2022-08-19T10:58:03;18.00;;;7.05;;
37841;SDS011;23682;53.508;10.476;2022-08-19T11:00:36;22.10;;;8.65;;
37841;SDS011;23682;53.508;10.476;2022-08-19T11:03:03;19.27;;;8.35;;
37841;SDS011;23682;53.508;10.476;2022-08-19T11:05:30;18.05;;;8.60;;
37841;SDS011;23682;53.508;10.476;2022-08-19T11:08:05;17.67;;;7.63;;
37841;SDS011;23682;53.508;10.476;2022-08-19T11:10:50;17.48;;;8.05;;
37841;SDS011;23682;53.508;10.476;2022-08-19T11:13:19;20.88;;;8.38;;
37841;SDS011;23682;53.508;10.476;2022-08-19T11:15:46;17.40;;;7.35;;
37841;SDS011;23682;53.508;10.476;2022-08-19T11:18:13;19.88;;;7.13;;
37841;SDS011;23682;53.508;10.476;2022-08-19T11:20:40;20.92;;;8.35;;
37841;SDS011;23682;53.508;10.476;2022-08-19T11:23:07;19.80;;;7.50;;
37841;SDS011;23682;53.508;10.476;2022-08-19T11:25:34;15.13;;;7.18;;
37841;SDS011;23682;53.508;10.476;2022-08-19T11:28:04;15.40;;;7.32;;
37841;SDS011;23682;53.508;10.476;2022-08-19T11:30:31;23.77;;;9.07;;
37841;SDS011;23682;53.508;10.476;2022-08-19T11:32:58;23.02;;;8.70;;
37841;SDS011;23682;53.508;10.476;2022-08-19T11:35:27;20.20;;;8.25;;
37841;SDS011;23682;53.508;10.476;2022-08-19T11:37:54;19.08;;;8.20;;
37841;SDS011;23682;53.508;10.476;2022-08-19T11:40:22;21.02;;;7.70;;
37841;SDS011;23682;53.508;10.476;2022-08-19T11:42:49;18.60;;;8.50;;
37841;SDS011;23682;53.508;10.476;2022-08-19T11:45:23;20.00;;;7.88;;
37841;SDS011;23682;53.508;10.476;2022-08-19T11:47:50;16.50;;;7.82;;
37841;SDS011;23682;53.508;10.476;2022-08-19T11:50:21;17.08;;;7.93;;
37841;SDS011;23682;53.508;10.476;2022-08-19T11:52:49;18.20;;;7.78;;
37841;SDS011;23682;53.508;10.476;2022-08-19T11:55:20;21.90;;;8.05;;
37841;SDS011;23682;53.508;10.476;2022-08-19T11:57:47;21.15;;;9.23;;
37841;SDS011;23682;53.508;10.476;2022-08-19T12:00:14;18.50;;;8.48;;
37841;SDS011;23682;53.508;10.476;2022-08-19T12:02:41;16.20;;;7.45;;
37841;SDS011;23682;53.508;10.476;2022-08-19T12:05:08;16.90;;;8.23;;
37841;SDS011;23682;53.508;10.476;2022-08-19T12:07:39;18.35;;;7.00;;
37841;SDS011;23682;53.508;10.476;2022-08-19T12:10:07;18.08;;;7.15;;
37841;SDS011;23682;53.508;10.476;2022-08-19T12:12:34;16.55;;;8.18;;
37841;SDS011;23682;53.508;10.476;2022-08-19T12:15:01;16.42;;;6.88;;
37841;SDS011;23682;53.508;10.476;2022-08-19T12:17:28;13.93;;;7.60;;
37841;SDS011;23682;53.508;10.476;2022-08-19T12:19:57;12.48;;;6.47;;
37841;SDS011;23682;53.508;10.476;2022-08-19T12:22:23;13.90;;;7.03;;
37841;SDS011;23682;53.508;10.476;2022-08-19T12:24:50;13.07;;;6.75;;
37841;SDS011;23682;53.508;10.476;2022-08-19T12:27:19;13.80;;;6.38;;
37841;SDS011;23682;53.508;10.476;2022-08-19T12:30:07;12.05;;;6.70;;
37841;SDS011;23682;53.508;10.476;2022-08-19T12:32:36;13.32;;;6.93;;
37841;SDS011;23682;53.508;10.476;2022-08-19T12:35:04;15.30;;;8.30;;
37841;SDS011;23682;53.508;10.476;2022-08-19T12:37:31;14.35;;;7.25;;
37841;SDS011;23682;53.508;10.476;2022-08-19T12:39:59;17.33;;;7.78;;
37841;SDS011;23682;53.508;10.476;2022-08-19T12:42:26;15.50;;;7.32;;
37841;SDS011;23682;53.508;10.476;2022-08-19T12:44:53;17.55;;;7.15;;
37841;SDS011;23682;53.508;10.476;2022-08-19T12:47:20;14.48;;;7.45;;
37841;SDS011;23682;53.508;10.476;2022-08-19T12:49:48;16.80;;;7.90;;
37841;SDS011;23682;53.508;10.476;2022-08-19T12:52:21;15.70;;;6.97;;
37841;SDS011;23682;53.508;10.476;2022-08-19T12:54:49;16.35;;;7.57;;
37841;SDS011;23682;53.508;10.476;2022-08-19T12:57:19;16.45;;;7.45;;
37841;SDS011;23682;53.508;10.476;2022-08-19T12:59:51;18.30;;;6.65;;
37841;SDS011;23682;53.508;10.476;2022-08-19T13:02:20;16.48;;;7.20;;
37841;SDS011;23682;53.508;10.476;2022-08-19T13:04:47;12.65;;;6.63;;
37841;SDS011;23682;53.508;10.476;2022-08-19T13:07:14;13.00;;;6.97;;
37841;SDS011;23682;53.508;10.476;2022-08-19T13:09:41;14.32;;;6.80;;
37841;SDS011;23682;53.508;10.476;2022-08-19T13:12:09;13.32;;;6.72;;
37841;SDS011;23682;53.508;10.476;2022-08-19T13:14:39;7.78;;;5.18;;
37841;SDS011;23682;53.508;10.476;2022-08-19T13:17:07;11.77;;;6.25;;
37841;SDS011;23682;53.508;10.476;2022-08-19T13:19:36;17.25;;;7.80;;
37841;SDS011;23682;53.508;10.476;2022-08-19T13:22:03;12.50;;;6.68;;
37841;SDS011;23682;53.508;10.476;2022-08-19T13:24:40;13.68;;;7.10;;
37841;SDS011;23682;53.508;10.476;2022-08-19T13:27:12;14.93;;;6.47;;
37841;SDS011;23682;53.508;10.476;2022-08-19T13:29:39;14.80;;;6.57;;
37841;SDS011;23682;53.508;10.476;2022-08-19T13:32:25;12.77;;;5.95;;
37841;SDS011;23682;53.508;10.476;2022-08-19T13:35:11;12.75;;;6.40;;
37841;SDS011;23682;53.508;10.476;2022-08-19T13:37:42;15.02;;;6.75;;
37841;SDS011;23682;53.508;10.476;2022-08-19T13:40:14;12.90;;;5.85;;
37841;SDS011;23682;53.508;10.476;2022-08-19T13:42:45;15.82;;;7.03;;
37841;SDS011;23682;53.508;10.476;2022-08-19T13:45:14;11.45;;;6.22;;
37841;SDS011;23682;53.508;10.476;2022-08-19T13:47:47;15.93;;;7.30;;
37841;SDS011;23682;53.508;10.476;2022-08-19T13:50:22;13.75;;;7.38;;
37841;SDS011;23682;53.508;10.476;2022-08-19T13:52:52;12.93;;;6.55;;
37841;SDS011;23682;53.508;10.476;2022-08-19T13:55:19;13.10;;;7.40;;
37841;SDS011;23682;53.508;10.476;2022-08-19T13:57:54;18.40;;;6.80;;
37841;SDS011;23682;53.508;10.476;2022-08-19T14:00:23;15.38;;;7.13;;
37841;SDS011;23682;53.508;10.476;2022-08-19T14:02:53;16.75;;;6.63;;
37841;SDS011;23682;53.508;10.476;2022-08-19T14:05:22;10.45;;;6.47;;
37841;SDS011;23682;53.508;10.476;2022-08-19T14:07:50;17.40;;;7.18;;
37841;SDS011;23682;53.508;10.476;2022-08-19T14:10:18;12.00;;;6.50;;
37841;SDS011;23682;53.508;10.476;2022-08-19T14:12:46;12.95;;;6.32;;
37841;SDS011;23682;53.508;10.476;2022-08-19T14:15:14;14.95;;;7.13;;
37841;SDS011;23682;53.508;10.476;2022-08-19T14:17:43;9.55;;;5.85;;
37841;SDS011;23682;53.508;10.476;2022-08-19T14:20:11;10.65;;;6.03;;
37841;SDS011;23682;53.508;10.476;2022-08-19T14:22:44;10.65;;;5.32;;
37841;SDS011;23682;53.508;10.476;2022-08-19T14:25:13;12.60;;;5.95;;
37841;SDS011;23682;53.508;10.476;2022-08-19T14:27:45;10.43;;;5.10;;
37841;SDS011;23682;53.508;10.476;2022-08-19T14:30:13;9.50;;;6.07;;
37841;SDS011;23682;53.508;10.476;2022-08-19T14:32:43;8.30;;;5.22;;
37841;SDS011;23682;53.508;10.476;2022-08-19T14:35:10;8.60;;;5.40;;
37841;SDS011;23682;53.508;10.476;2022-08-19T14:37:38;11.00;;;5.63;;
37841;SDS011;23682;53.508;10.476;2022-08-19T14:40:11;9.90;;;5.00;;
37841;SDS011;23682;53.508;10.476;2022-08-19T14:42:40;8.88;;;5.35;;
37841;SDS011;23682;53.508;10.476;2022-08-19T14:45:07;9.10;;;5.00;;
37841;SDS011;23682;53.508;10.476;2022-08-19T14:47:35;10.77;;;5.57;;
37841;SDS011;23682;53.508;10.476;2022-08-19T14:50:08;10.73;;;5.72;;
37841;SDS011;23682;53.508;10.476;2022-08-19T14:52:44;11.05;;;6.13;;
37841;SDS011;23682;53.508;10.476;2022-08-19T14:55:17;9.13;;;5.50;;
37841;SDS011;23682;53.508;10.476;2022-08-19T14:57:44;8.45;;;5.20;;
37841;SDS011;23682;53.508;10.476;2022-08-19T15:00:11;10.15;;;4.95;;